createdAt,value
2022-08-07T00:00:26.907Z,72.68
2022-08-07T00:01:43.853Z,72.44
2022-08-07T00:02:39.679Z,72.88
2022-08-07T00:03:26.867Z,72.88
2022-08-07T00:04:26.890Z,72.47
2022-08-07T00:05:26.840Z,73.09
2022-08-07T00:06:29.522Z,73.19
2022-08-07T00:07:27.391Z,73.09
2022-08-07T00:08:26.804Z,72.88
2022-08-07T00:09:35.489Z,72.68
2022-08-07T00:10:30.496Z,73.19
2022-08-07T00:11:30.031Z,72.82
2022-08-07T00:12:26.750Z,73.63
2022-08-07T00:13:27.120Z,74.18
2022-08-07T00:14:30.353Z,74.27
2022-08-07T00:15:38.028Z,74.79
2022-08-07T00:16:28.019Z,75.43
2022-08-07T00:17:26.981Z,75.33
2022-08-07T00:18:26.673Z,75.23
2022-08-07T00:20:00.620Z,75.94
2022-08-07T00:20:29.929Z,76.25
2022-08-07T00:21:56.107Z,76.28
2022-08-07T00:22:35.426Z,76.28
2022-08-07T00:23:28.350Z,76.59
2022-08-07T00:24:26.592Z,76.35
2022-08-07T00:25:26.577Z,75.64
2022-08-07T00:26:59.279Z,75.23
2022-08-07T00:27:27.372Z,75.40
2022-08-07T00:28:33.234Z,75.29
2022-08-07T00:29:26.525Z,74.89
2022-08-07T00:30:28.548Z,74.58
2022-08-07T00:31:38.139Z,74.58
2022-08-07T00:32:28.497Z,74.38
2022-08-07T00:33:26.476Z,74.42
2022-08-07T00:34:26.462Z,74.51
2022-08-07T00:35:26.448Z,74.51
2022-08-07T00:36:26.436Z,74.45
2022-08-07T00:37:29.394Z,75.40
2022-08-07T00:38:31.784Z,76.62
2022-08-07T00:39:26.515Z,77.58
2022-08-07T00:40:39.814Z,77.99
2022-08-07T00:41:26.369Z,78.71
2022-08-07T00:42:29.193Z,78.80
2022-08-07T00:44:00.947Z,78.46
2022-08-07T00:44:26.539Z,77.30
2022-08-07T00:45:26.315Z,77.30
2022-08-07T00:46:26.305Z,76.80
2022-08-07T00:48:09.181Z,76.56
2022-08-07T00:48:31.871Z,75.57
2022-08-07T00:50:20.194Z,76.08
2022-08-07T00:50:46.113Z,76.49
2022-08-07T00:51:56.397Z,76.83
2022-08-07T00:52:26.232Z,77.85
2022-08-07T00:53:26.210Z,76.46
2022-08-07T00:54:26.198Z,77.58
2022-08-07T00:56:03.403Z,77.21
2022-08-07T00:56:30.011Z,78.74
2022-08-07T00:57:26.363Z,78.54
2022-08-07T00:58:26.145Z,80.10
2022-08-07T00:59:32.652Z,80.82
2022-08-07T01:00:26.121Z,80.96
2022-08-07T01:01:26.194Z,81.06
2022-08-07T01:02:29.108Z,81.47
2022-08-07T01:03:56.694Z,81.31
2022-08-07T01:04:28.064Z,82.02
2022-08-07T01:05:26.048Z,81.92
2022-08-07T01:06:26.045Z,82.33
2022-08-07T01:07:27.589Z,82.53
2022-08-07T01:08:26.010Z,82.12
2022-08-07T01:10:04.608Z,82.47
2022-08-07T01:10:27.983Z,83.70
2022-08-07T01:12:09.744Z,84.21
2022-08-07T01:12:29.943Z,84.31
2022-08-07T01:13:25.942Z,84.93
2022-08-07T01:14:28.347Z,85.03
2022-08-07T01:16:00.581Z,85.09
2022-08-07T01:16:30.619Z,84.64
2022-08-07T01:17:26.229Z,83.83
2022-08-07T01:18:25.875Z,83.01
2022-08-07T01:19:25.860Z,83.21
2022-08-07T01:20:30.689Z,82.50
2022-08-07T01:21:26.157Z,82.29
2022-08-07T01:22:29.530Z,83.66
2022-08-07T01:23:38.006Z,83.56
2022-08-07T01:24:25.794Z,84.58
2022-08-07T01:25:54.059Z,85.30
2022-08-07T01:26:26.002Z,85.80
2022-08-07T01:27:32.258Z,85.71
2022-08-07T01:28:25.742Z,85.50
2022-08-07T01:29:27.983Z,85.30
2022-08-07T01:30:27.214Z,85.19
2022-08-07T01:31:25.696Z,84.85
2022-08-07T01:32:25.685Z,84.50
2022-08-07T01:33:53.638Z,84.30
2022-08-07T01:34:30.672Z,83.89
2022-08-07T01:35:25.641Z,83.44
2022-08-07T01:36:33.394Z,82.72
2022-08-07T01:37:25.737Z,82.72
2022-08-07T01:38:29.088Z,81.90
2022-08-07T01:39:25.658Z,81.26
2022-08-07T01:40:27.577Z,81.05
2022-08-07T01:41:26.239Z,80.85
2022-08-07T01:42:38.393Z,80.68
2022-08-07T01:43:25.901Z,80.99
2022-08-07T01:44:25.523Z,80.27
2022-08-07T01:45:36.140Z,79.15
2022-08-07T01:46:27.495Z,80.21
2022-08-07T01:48:17.762Z,81.33
2022-08-07T01:48:30.495Z,80.45
2022-08-07T01:49:25.457Z,80.45
2022-08-07T01:50:28.878Z,80.59
2022-08-07T01:52:03.795Z,81.45
2022-08-07T01:52:25.414Z,82.37
2022-08-07T01:54:09.621Z,82.61
2022-08-07T01:54:36.802Z,82.86
2022-08-07T01:55:25.375Z,84.70
2022-08-07T01:56:25.359Z,85.31
2022-08-07T01:57:25.348Z,84.08
2022-08-07T01:58:29.160Z,83.78
2022-08-07T01:59:31.021Z,84.84
2022-08-07T02:00:28.845Z,85.35
2022-08-07T02:01:59.865Z,85.90
2022-08-07T02:02:32.745Z,88.84
2022-08-07T02:03:32.012Z,89.00
2022-08-07T02:04:26.583Z,87.12
2022-08-07T02:05:48.244Z,85.85
2022-08-07T02:06:31.823Z,85.85
2022-08-07T02:07:25.214Z,85.23
2022-08-07T02:08:27.200Z,84.62
2022-08-07T02:09:51.801Z,84.21
2022-08-07T02:10:25.174Z,83.49
2022-08-07T02:11:30.817Z,83.43
2022-08-07T02:12:29.207Z,84.14
2022-08-07T02:13:56.511Z,83.88
2022-08-07T02:14:35.730Z,83.67
2022-08-07T02:16:28.612Z,84.63
2022-08-07T02:17:31.493Z,85.80
2022-08-07T02:18:26.010Z,89.04
2022-08-07T02:20:07.268Z,88.53
2022-08-07T02:20:25.046Z,87.50
2022-08-07T02:21:25.035Z,87.03
2022-08-07T02:22:25.652Z,87.54
2022-08-07T02:23:25.010Z,87.54
2022-08-07T02:24:24.999Z,89.45
2022-08-07T02:26:10.126Z,89.25
2022-08-07T02:26:32.698Z,88.53
2022-08-07T02:27:27.313Z,88.84
2022-08-07T02:28:27.051Z,89.31
2022-08-07T02:29:24.934Z,88.49
2022-08-07T02:30:24.919Z,87.98
2022-08-07T02:31:28.653Z,86.54
2022-08-07T02:32:27.027Z,85.00
2022-08-07T02:33:24.883Z,85.41
2022-08-07T02:34:26.867Z,85.76
2022-08-07T02:36:28.646Z,85.55
2022-08-07T02:36:28.944Z,85.55
2022-08-07T02:37:24.833Z,87.09
2022-08-07T02:38:28.159Z,87.50
2022-08-07T02:39:43.048Z,89.35
2022-08-07T02:40:29.940Z,89.20
2022-08-07T02:41:33.667Z,88.49
2022-08-07T02:42:24.769Z,87.53
2022-08-07T02:43:24.755Z,86.56
2022-08-07T02:44:26.816Z,85.95
2022-08-07T02:45:58.711Z,85.54
2022-08-07T02:46:24.713Z,85.03
2022-08-07T02:47:24.705Z,85.47
2022-08-07T02:48:24.689Z,85.79
2022-08-07T02:49:29.199Z,86.19
2022-08-07T02:50:24.663Z,86.50
2022-08-07T02:51:41.899Z,86.40
2022-08-07T02:52:30.954Z,85.88
2022-08-07T02:53:27.556Z,85.99
2022-08-07T02:54:25.285Z,86.09
2022-08-07T02:55:28.801Z,85.88
2022-08-07T02:56:28.000Z,85.88
2022-08-07T02:57:24.575Z,85.58
2022-08-07T02:58:27.234Z,85.21
2022-08-07T02:59:27.398Z,83.67
2022-08-07T03:00:24.535Z,83.71
2022-08-07T03:01:35.700Z,84.74
2022-08-07T03:02:26.507Z,85.60
2022-08-07T03:03:24.496Z,86.05
2022-08-07T03:04:24.489Z,86.35
2022-08-07T03:05:24.671Z,86.81
2022-08-07T03:06:25.813Z,86.81
2022-08-07T03:08:04.965Z,87.67
2022-08-07T03:08:29.264Z,88.39
2022-08-07T03:09:44.625Z,88.84
2022-08-07T03:10:24.404Z,89.45
2022-08-07T03:11:25.273Z,90.89
2022-08-07T03:12:30.930Z,92.29
2022-08-07T03:13:26.365Z,92.29
2022-08-07T03:14:24.355Z,91.51
2022-08-07T03:15:30.303Z,90.99
2022-08-07T03:16:27.836Z,90.99
2022-08-07T03:17:24.317Z,91.10
2022-08-07T03:18:25.834Z,91.71
2022-08-07T03:19:24.291Z,92.43
2022-08-07T03:20:24.276Z,92.74
2022-08-07T03:21:24.265Z,92.95
2022-08-07T03:22:24.279Z,92.63
2022-08-07T03:23:33.815Z,92.78
2022-08-07T03:24:26.962Z,92.88
2022-08-07T03:25:24.217Z,92.99
2022-08-07T03:26:24.200Z,92.99
2022-08-07T03:27:30.508Z,92.37
2022-08-07T03:28:37.812Z,92.16
2022-08-07T03:29:24.163Z,91.44
2022-08-07T03:30:24.321Z,91.59
2022-08-07T03:31:26.255Z,92.11
2022-08-07T03:32:24.131Z,92.58
2022-08-07T03:33:24.113Z,93.50
2022-08-07T03:34:27.386Z,93.81
2022-08-07T03:35:26.143Z,93.71
2022-08-07T03:36:25.819Z,93.40
2022-08-07T03:37:27.681Z,92.68
2022-08-07T03:38:29.903Z,92.48
2022-08-07T03:39:46.025Z,92.88
2022-08-07T03:40:24.121Z,93.50
2022-08-07T03:41:42.359Z,93.50
2022-08-07T03:42:23.991Z,92.88
2022-08-07T03:43:26.676Z,92.48
2022-08-07T03:44:32.021Z,92.37
2022-08-07T03:45:31.067Z,92.88
2022-08-07T03:46:23.939Z,93.30
2022-08-07T03:47:23.947Z,93.92
2022-08-07T03:48:23.912Z,93.92
2022-08-07T03:49:23.902Z,94.07
2022-08-07T03:50:23.886Z,93.67
2022-08-07T03:51:23.874Z,93.56
2022-08-07T03:52:26.134Z,93.35
2022-08-07T03:54:05.963Z,93.46
2022-08-07T03:54:36.237Z,93.56
2022-08-07T03:55:23.821Z,94.12
2022-08-07T03:56:33.463Z,94.28
2022-08-07T03:58:33.427Z,94.32
2022-08-07T03:59:05.171Z,94.69
2022-08-07T03:59:23.770Z,94.73
2022-08-07T04:00:30.492Z,94.79
2022-08-07T04:01:23.788Z,94.53
2022-08-07T04:02:23.728Z,93.92
2022-08-07T04:03:23.717Z,93.09
2022-08-07T04:04:23.702Z,92.88
2022-08-07T04:05:28.707Z,93.20
2022-08-07T04:06:36.153Z,93.40
2022-08-07T04:07:25.665Z,94.01
2022-08-07T04:08:23.650Z,93.71
2022-08-07T04:09:23.702Z,94.32
2022-08-07T04:10:23.624Z,94.48
2022-08-07T04:12:25.795Z,93.97
2022-08-07T04:12:28.888Z,93.40
2022-08-07T04:13:27.558Z,93.20
2022-08-07T04:14:37.763Z,93.09
2022-08-07T04:15:23.978Z,93.92
2022-08-07T04:16:31.122Z,94.39
2022-08-07T04:17:23.535Z,94.59
2022-08-07T04:18:58.421Z,95.41
2022-08-07T04:19:23.510Z,95.41
2022-08-07T04:20:25.495Z,95.41
2022-08-07T04:21:23.482Z,94.84
2022-08-07T04:22:27.302Z,93.60
2022-08-07T04:23:23.457Z,92.99
2022-08-07T04:24:30.582Z,92.99
2022-08-07T04:25:23.600Z,93.20
2022-08-07T04:26:23.419Z,92.88
2022-08-07T04:27:25.835Z,93.40
2022-08-07T04:28:23.393Z,93.50
2022-08-07T04:29:23.385Z,93.87
2022-08-07T04:30:35.591Z,93.56
2022-08-07T04:32:02.898Z,93.46
2022-08-07T04:32:33.949Z,93.15
2022-08-07T04:33:23.335Z,93.05
2022-08-07T04:34:32.871Z,92.49
2022-08-07T04:35:23.304Z,91.61
2022-08-07T04:36:26.167Z,91.30
2022-08-07T04:37:23.279Z,91.20
2022-08-07T04:38:23.269Z,91.10
2022-08-07T04:39:25.942Z,91.30
2022-08-07T04:40:29.741Z,91.41
2022-08-07T04:41:25.228Z,91.61
2022-08-07T04:42:23.214Z,91.61
2022-08-07T04:44:09.729Z,91.86
2022-08-07T04:44:23.187Z,92.68
2022-08-07T04:46:00.372Z,92.78
2022-08-07T04:46:29.313Z,92.99
2022-08-07T04:47:23.576Z,93.09
2022-08-07T04:48:23.133Z,93.92
2022-08-07T04:49:24.729Z,95.72
2022-08-07T04:50:23.108Z,96.70
2022-08-07T04:51:27.321Z,96.39
2022-08-07T04:52:25.238Z,96.14
2022-08-07T04:53:40.083Z,95.42
2022-08-07T04:54:30.127Z,94.70
2022-08-07T04:58:10.821Z,93.17
2022-08-07T04:58:11.161Z,92.55
2022-08-07T04:58:12.052Z,93.89
2022-08-07T04:58:47.592Z,92.04
2022-08-07T05:00:09.562Z,91.83
2022-08-07T05:00:30.953Z,92.04
2022-08-07T05:01:23.059Z,92.04
2022-08-07T05:02:22.957Z,92.14
2022-08-07T05:04:00.152Z,92.41
2022-08-07T05:04:22.932Z,92.05
2022-08-07T05:05:52.631Z,91.34
2022-08-07T05:06:22.908Z,90.17
2022-08-07T05:07:28.971Z,89.51
2022-08-07T05:08:58.937Z,89.20
2022-08-07T05:09:43.206Z,88.90
2022-08-07T05:10:22.850Z,88.45
2022-08-07T05:11:24.550Z,88.14
2022-08-07T05:12:26.715Z,88.34
2022-08-07T05:14:52.438Z,87.42
2022-08-07T05:14:55.623Z,87.93
2022-08-07T05:15:23.810Z,87.53
2022-08-07T05:16:22.770Z,88.34
2022-08-07T05:17:52.658Z,88.86
2022-08-07T05:18:22.743Z,89.06
2022-08-07T05:19:32.871Z,88.34
2022-08-07T05:20:22.718Z,87.93
2022-08-07T05:21:25.294Z,88.24
2022-08-07T05:22:27.589Z,88.65
2022-08-07T05:23:29.059Z,88.34
2022-08-07T05:24:24.694Z,87.93
2022-08-07T05:25:35.608Z,89.57
2022-08-07T05:26:23.951Z,90.08
2022-08-07T05:28:16.272Z,89.43
2022-08-07T05:28:26.595Z,88.36
2022-08-07T05:29:22.601Z,88.26
2022-08-07T05:30:32.708Z,87.20
2022-08-07T05:31:23.045Z,87.06
2022-08-07T05:32:22.560Z,86.03
2022-08-07T05:33:22.556Z,85.13
2022-08-07T05:34:26.212Z,84.17
2022-08-07T05:35:23.901Z,82.57
2022-08-07T05:36:30.220Z,80.32
2022-08-07T05:37:25.475Z,78.07
2022-08-07T05:39:00.606Z,75.49
2022-08-07T05:40:06.746Z,74.71
2022-08-07T05:40:22.524Z,73.05
2022-08-07T05:41:22.521Z,72.82
2022-08-07T05:42:33.846Z,70.69
2022-08-07T05:43:49.705Z,69.00
2022-08-07T05:44:29.667Z,67.55
2022-08-07T05:45:46.185Z,66.27
2022-08-07T05:46:22.379Z,64.62
2022-08-07T05:48:00.028Z,66.71
2022-08-07T05:48:26.421Z,68.52
2022-08-07T05:49:22.338Z,70.55
2022-08-07T05:50:22.325Z,70.11
2022-08-07T05:51:22.311Z,68.79
2022-08-07T05:52:32.336Z,69.17
2022-08-07T05:54:13.677Z,67.65
2022-08-07T05:54:30.891Z,68.02
2022-08-07T05:55:22.260Z,66.94
2022-08-07T05:56:29.936Z,66.78
2022-08-07T05:57:22.233Z,65.44
2022-08-07T05:58:22.217Z,63.82
2022-08-07T05:59:22.206Z,63.45
2022-08-07T06:00:22.192Z,65.70
2022-08-07T06:01:22.254Z,65.30
2022-08-07T06:02:28.757Z,65.24
2022-08-07T06:03:22.154Z,63.24
2022-08-07T06:04:22.141Z,61.16
2022-08-07T06:05:28.110Z,59.83
2022-08-07T06:06:22.114Z,58.52
2022-08-07T06:07:23.107Z,58.83
2022-08-07T06:08:31.297Z,61.34
2022-08-07T06:09:22.072Z,62.98
2022-08-07T06:10:22.061Z,63.01
2022-08-07T06:11:22.046Z,63.34
2022-08-07T06:12:31.731Z,64.16
2022-08-07T06:14:10.779Z,62.88
2022-08-07T06:14:28.569Z,61.51
2022-08-07T06:15:21.994Z,61.38
2022-08-07T06:17:22.400Z,59.11
2022-08-07T06:18:21.960Z,59.42
2022-08-07T06:19:57.954Z,58.74
2022-08-07T06:20:31.817Z,57.08
2022-08-07T06:22:15.203Z,54.02
2022-08-07T06:22:27.149Z,52.36
2022-08-07T06:23:46.629Z,50.14
2022-08-07T06:24:37.874Z,49.46
2022-08-07T06:25:21.864Z,49.56
2022-08-07T06:26:21.854Z,49.51
2022-08-07T06:27:22.735Z,48.33
2022-08-07T06:28:27.689Z,48.51
2022-08-07T06:29:21.812Z,47.69
2022-08-07T06:30:24.360Z,48.01
2022-08-07T06:31:24.154Z,47.36
2022-08-07T06:32:21.779Z,47.54
2022-08-07T06:33:22.674Z,46.70
2022-08-07T06:34:21.748Z,46.13
2022-08-07T06:35:21.738Z,45.94
2022-08-07T06:36:34.817Z,46.13
2022-08-07T06:37:21.772Z,45.58
2022-08-07T06:38:21.701Z,45.34
2022-08-07T06:40:16.544Z,44.12
2022-08-07T06:40:21.731Z,44.12
2022-08-07T06:41:59.130Z,44.22
2022-08-07T06:42:33.058Z,44.40
2022-08-07T06:43:22.571Z,43.28
2022-08-07T06:44:21.622Z,42.66
2022-08-07T06:45:21.606Z,42.07
2022-08-07T06:46:35.082Z,42.05
2022-08-07T06:47:21.682Z,40.85
2022-08-07T06:48:24.963Z,41.05
2022-08-07T06:49:21.556Z,40.36
2022-08-07T06:50:21.543Z,41.37
2022-08-07T06:51:30.933Z,41.05
2022-08-07T06:52:31.896Z,41.15
2022-08-07T06:55:29.352Z,40.85
2022-08-07T06:55:32.466Z,41.33
2022-08-07T06:55:34.390Z,40.74
2022-08-07T06:56:21.467Z,40.91
2022-08-07T06:57:21.455Z,40.89
2022-08-07T06:58:24.483Z,41.49
2022-08-07T07:00:14.422Z,41.41
2022-08-07T07:00:21.424Z,42.74
2022-08-07T07:01:21.437Z,42.87
2022-08-07T07:02:49.097Z,42.96
2022-08-07T07:03:39.832Z,42.52
2022-08-07T07:04:32.070Z,42.01
2022-08-07T07:06:02.681Z,41.39
2022-08-07T07:06:26.153Z,40.83
2022-08-07T07:07:59.879Z,41.95
2022-08-07T07:08:25.674Z,41.51
2022-08-07T07:09:21.303Z,40.99
2022-08-07T07:10:21.362Z,40.97
2022-08-07T07:12:08.714Z,40.58
2022-08-07T07:12:26.695Z,40.16
2022-08-07T07:13:56.509Z,40.17
2022-08-07T07:14:21.701Z,40.16
2022-08-07T07:15:24.238Z,39.52
2022-08-07T07:16:21.213Z,39.42
2022-08-07T07:17:21.198Z,39.34
2022-08-07T07:18:47.370Z,39.18
2022-08-07T07:19:56.262Z,39.88
2022-08-07T07:20:21.163Z,39.27
2022-08-07T07:21:21.148Z,39.34
2022-08-07T07:22:36.346Z,38.73
2022-08-07T07:24:09.419Z,38.83
2022-08-07T07:24:21.111Z,38.93
2022-08-07T07:26:34.046Z,38.63
2022-08-07T07:26:34.613Z,38.59
2022-08-07T07:27:21.172Z,38.10
2022-08-07T07:28:41.922Z,38.00
2022-08-07T07:29:39.626Z,37.67
2022-08-07T07:30:32.794Z,36.54
2022-08-07T07:31:21.714Z,36.48
2022-08-07T07:32:21.011Z,36.67
2022-08-07T07:33:20.999Z,36.65
2022-08-07T07:34:20.995Z,36.56
2022-08-07T07:35:20.972Z,36.57
2022-08-07T07:36:20.965Z,37.18
2022-08-07T07:37:58.937Z,38.01
2022-08-07T07:38:20.936Z,38.00
2022-08-07T07:39:21.017Z,37.17
2022-08-07T07:40:20.914Z,37.18
2022-08-07T07:41:20.900Z,37.27
2022-08-07T07:42:20.987Z,36.85
2022-08-07T07:43:27.625Z,36.97
2022-08-07T07:44:25.805Z,37.37
2022-08-07T07:45:22.711Z,36.36
2022-08-07T07:46:37.201Z,35.45
2022-08-07T07:47:23.632Z,35.94
2022-08-07T07:48:35.375Z,35.65
2022-08-07T07:50:33.820Z,35.33
2022-08-07T07:50:36.681Z,35.53
2022-08-07T07:51:20.776Z,34.92
2022-08-07T07:52:20.765Z,35.10
2022-08-07T07:53:25.548Z,34.33
2022-08-07T07:54:20.739Z,36.06
2022-08-07T07:55:20.723Z,35.93
2022-08-07T07:56:30.231Z,35.02
2022-08-07T07:57:20.752Z,34.19
2022-08-07T07:58:20.688Z,34.71
2022-08-07T07:59:23.776Z,34.62
2022-08-07T08:00:29.104Z,34.71
2022-08-07T08:02:03.151Z,34.80
2022-08-07T08:02:22.534Z,33.39
2022-08-07T08:04:05.805Z,33.70
2022-08-07T08:04:25.872Z,33.70
2022-08-07T08:05:22.353Z,33.70
2022-08-07T08:06:22.591Z,33.80
2022-08-07T08:07:20.575Z,34.19
2022-08-07T08:08:34.528Z,33.80
2022-08-07T08:09:20.549Z,33.89
2022-08-07T08:10:37.729Z,33.27
2022-08-07T08:11:47.103Z,32.87
2022-08-07T08:12:50.113Z,32.48
2022-08-07T08:13:20.499Z,32.87
2022-08-07T08:14:24.567Z,32.17
2022-08-07T08:15:21.782Z,32.27
2022-08-07T08:16:20.466Z,32.06
2022-08-07T08:17:57.097Z,31.94
2022-08-07T08:18:20.659Z,31.32
2022-08-07T08:20:16.422Z,30.70
2022-08-07T08:20:26.200Z,30.27
2022-08-07T08:21:20.400Z,30.50
2022-08-07T08:22:20.390Z,31.01
2022-08-07T08:23:20.677Z,30.83
2022-08-07T08:24:44.691Z,31.01
2022-08-07T08:25:42.207Z,30.78
2022-08-07T08:26:22.339Z,30.18
2022-08-07T08:27:20.379Z,29.70
2022-08-07T08:28:23.731Z,30.09
2022-08-07T08:29:20.317Z,29.91
2022-08-07T08:30:20.344Z,30.21
2022-08-07T08:31:22.784Z,29.99
2022-08-07T08:32:25.434Z,29.79
2022-08-07T08:33:20.487Z,29.57
2022-08-07T08:34:27.157Z,28.77
2022-08-07T08:35:20.237Z,28.25
2022-08-07T08:36:25.581Z,28.34
2022-08-07T08:38:01.098Z,28.11
2022-08-07T08:38:20.198Z,28.79
2022-08-07T08:39:20.212Z,30.32
2022-08-07T08:40:28.350Z,30.62
2022-08-07T08:41:22.156Z,30.81
2022-08-07T08:42:20.524Z,30.32
2022-08-07T08:43:20.132Z,30.27
2022-08-07T08:44:29.452Z,29.26
2022-08-07T08:45:22.107Z,29.05
2022-08-07T08:46:21.886Z,28.23
2022-08-07T08:47:20.177Z,27.82
2022-08-07T08:48:20.074Z,27.42
2022-08-07T08:49:32.987Z,28.05
2022-08-07T08:50:34.797Z,28.03
2022-08-07T08:51:25.980Z,28.05
2022-08-07T08:52:20.030Z,28.17
2022-08-07T08:53:20.014Z,29.29
2022-08-07T08:54:20.004Z,29.19
2022-08-07T08:55:21.114Z,29.49
2022-08-07T08:56:24.423Z,29.47
2022-08-07T08:57:19.996Z,29.38
2022-08-07T08:58:24.796Z,28.97
2022-08-07T08:59:19.948Z,28.97
2022-08-07T09:00:19.938Z,29.18
2022-08-07T09:01:19.970Z,29.91
2022-08-07T09:02:34.846Z,30.31
2022-08-07T09:03:20.241Z,30.09
2022-08-07T09:04:25.855Z,29.58
2022-08-07T09:05:31.953Z,28.98
2022-08-07T09:06:19.870Z,28.58
2022-08-07T09:07:22.947Z,28.28
2022-08-07T09:08:28.699Z,28.68
2022-08-07T09:09:20.993Z,29.29
2022-08-07T09:10:19.827Z,29.49
2022-08-07T09:11:24.364Z,29.39
2022-08-07T09:12:19.964Z,28.87
2022-08-07T09:13:19.795Z,28.68
2022-08-07T09:14:19.780Z,28.46
2022-08-07T09:16:22.203Z,28.36
2022-08-07T09:16:29.785Z,28.17
2022-08-07T09:17:19.744Z,27.86
2022-08-07T09:18:22.851Z,27.64
2022-08-07T09:19:52.338Z,27.36
2022-08-07T09:20:35.278Z,27.67
2022-08-07T09:21:33.823Z,27.95
2022-08-07T09:22:36.967Z,28.36
2022-08-07T09:24:31.769Z,28.25
2022-08-07T09:24:54.956Z,28.03
2022-08-07T09:25:20.333Z,27.65
2022-08-07T09:26:20.776Z,27.86
2022-08-07T09:27:19.629Z,28.16
2022-08-07T09:29:24.477Z,28.06
2022-08-07T09:30:05.297Z,27.83
2022-08-07T09:30:20.729Z,27.65
2022-08-07T09:31:19.582Z,27.44
2022-08-07T09:32:19.567Z,27.74
2022-08-07T09:33:40.833Z,27.12
2022-08-07T09:34:19.545Z,26.62
2022-08-07T09:36:04.342Z,26.09
2022-08-07T09:36:19.518Z,25.79
2022-08-07T09:37:19.511Z,25.90
2022-08-07T09:38:19.495Z,25.80
2022-08-07T09:39:52.634Z,25.51
2022-08-07T09:40:19.505Z,26.01
2022-08-07T09:41:19.461Z,26.40
2022-08-07T09:42:23.107Z,25.52
2022-08-07T09:43:19.433Z,25.92
2022-08-07T09:44:32.756Z,26.81
2022-08-07T09:47:50.579Z,26.51
2022-08-07T09:47:52.124Z,26.72
2022-08-07T09:47:55.262Z,26.23
2022-08-07T09:48:21.716Z,26.81
2022-08-07T09:50:01.834Z,26.31
2022-08-07T09:50:20.074Z,25.91
2022-08-07T09:52:10.470Z,25.59
2022-08-07T09:52:34.167Z,25.69
2022-08-07T09:53:19.311Z,25.70
2022-08-07T09:54:19.302Z,25.91
2022-08-07T09:55:36.863Z,25.92
2022-08-07T09:56:19.929Z,25.73
2022-08-07T09:57:19.263Z,27.16
2022-08-07T09:58:19.252Z,27.88
2022-08-07T09:59:21.984Z,28.06
2022-08-07T10:00:19.227Z,27.02
2022-08-07T10:01:52.374Z,26.41
2022-08-07T10:02:24.118Z,26.52
2022-08-07T10:04:05.128Z,27.04
2022-08-07T10:04:28.387Z,27.32
2022-08-07T10:05:19.166Z,27.04
2022-08-07T10:06:19.211Z,27.33
2022-08-07T10:07:25.883Z,26.53
2022-08-07T10:08:19.133Z,26.42
2022-08-07T10:09:23.643Z,26.30
2022-08-07T10:10:21.387Z,25.91
2022-08-07T10:12:03.365Z,25.80
2022-08-07T10:12:21.820Z,25.80
2022-08-07T10:13:55.375Z,25.41
2022-08-07T10:14:30.455Z,25.61
2022-08-07T10:15:19.104Z,26.12
2022-08-07T10:16:19.209Z,26.41
2022-08-07T10:18:19.007Z,25.91
2022-08-07T10:19:18.996Z,25.50
2022-08-07T10:20:21.859Z,25.37
2022-08-07T10:21:19.983Z,25.30
2022-08-07T10:22:24.997Z,25.79
2022-08-07T10:23:18.949Z,25.58
2022-08-07T10:24:18.935Z,25.50
2022-08-07T10:25:22.540Z,25.61
2022-08-07T10:26:24.736Z,25.59
2022-08-07T10:27:18.902Z,25.81
2022-08-07T10:28:18.897Z,25.50
2022-08-07T10:29:18.878Z,24.89
2022-08-07T10:30:18.867Z,24.90
2022-08-07T10:31:18.856Z,25.41
2022-08-07T10:32:51.598Z,25.19
2022-08-07T10:33:18.832Z,25.40
2022-08-07T10:34:31.878Z,25.07
2022-08-07T10:35:20.809Z,24.78
2022-08-07T10:36:18.796Z,24.26
2022-08-07T10:37:18.790Z,24.07
2022-08-07T10:38:35.074Z,24.27
2022-08-07T10:39:18.809Z,24.76
2022-08-07T10:40:18.851Z,24.46
2022-08-07T10:41:46.445Z,23.87
2022-08-07T10:42:21.357Z,23.97
2022-08-07T10:43:19.448Z,23.77
2022-08-07T10:44:19.312Z,24.48
2022-08-07T10:45:19.638Z,24.18
2022-08-07T10:46:18.680Z,24.40
2022-08-07T10:47:18.670Z,24.29
2022-08-07T10:49:24.595Z,22.88
2022-08-07T10:50:19.009Z,23.62
2022-08-07T10:51:39.128Z,24.31
2022-08-07T10:52:18.618Z,24.01
2022-08-07T10:53:21.535Z,23.98
2022-08-07T10:54:18.607Z,23.19
2022-08-07T10:55:27.041Z,23.40
2022-08-07T10:56:21.025Z,23.19
2022-08-07T10:57:18.554Z,23.08
2022-08-07T10:58:18.546Z,23.07
2022-08-07T10:59:21.457Z,22.79
2022-08-07T11:00:36.965Z,23.37
2022-08-07T11:01:18.575Z,24.38
2022-08-07T11:02:33.236Z,22.99
2022-08-07T11:03:18.485Z,22.58
2022-08-07T11:04:32.337Z,22.36
2022-08-07T11:05:18.462Z,22.08
2022-08-07T11:06:18.661Z,21.89
2022-08-07T11:07:56.527Z,22.19
2022-08-07T11:08:18.426Z,23.53
2022-08-07T11:10:09.619Z,24.94
2022-08-07T11:10:18.404Z,26.42
2022-08-07T11:11:20.915Z,29.88
2022-08-07T11:12:18.865Z,29.76
2022-08-07T11:14:44.398Z,27.72
2022-08-07T11:14:46.520Z,28.42
2022-08-07T11:15:18.356Z,27.80
2022-08-07T11:16:19.658Z,26.18
2022-08-07T11:17:23.119Z,25.28
2022-08-07T11:18:18.310Z,24.74
2022-08-07T11:19:21.718Z,24.33
2022-08-07T11:20:18.287Z,23.33
2022-08-07T11:21:18.287Z,22.82
2022-08-07T11:22:26.438Z,22.41
2022-08-07T11:23:20.777Z,22.10
2022-08-07T11:24:18.238Z,21.89
2022-08-07T11:25:18.227Z,22.07
2022-08-07T11:26:18.215Z,21.97
2022-08-07T11:27:18.205Z,22.60
2022-08-07T11:28:18.193Z,23.10
2022-08-07T11:29:42.727Z,23.20
2022-08-07T11:30:19.248Z,22.92
2022-08-07T11:31:20.159Z,23.22
2022-08-07T11:32:26.198Z,23.62
2022-08-07T11:33:20.139Z,23.73
2022-08-07T11:34:18.122Z,23.80
2022-08-07T11:35:25.066Z,23.51
2022-08-07T11:36:20.432Z,23.53
2022-08-07T11:37:18.091Z,24.56
2022-08-07T11:38:21.455Z,25.48
2022-08-07T11:39:19.893Z,25.37
2022-08-07T11:40:19.191Z,25.35
2022-08-07T11:41:28.316Z,24.33
2022-08-07T11:42:18.921Z,24.02
2022-08-07T11:43:18.020Z,23.71
2022-08-07T11:44:18.751Z,23.62
2022-08-07T11:45:20.723Z,23.30
2022-08-07T11:46:17.984Z,22.91
2022-08-07T11:47:17.974Z,22.91
2022-08-07T11:48:29.877Z,23.20
2022-08-07T11:49:51.518Z,22.90
2022-08-07T11:50:31.545Z,22.81
2022-08-07T11:51:40.839Z,23.45
2022-08-07T11:52:17.913Z,23.44
2022-08-07T11:53:17.905Z,22.74
2022-08-07T11:54:17.890Z,22.52
2022-08-07T11:56:09.243Z,22.50
2022-08-07T11:56:27.006Z,22.52
2022-08-07T11:57:17.857Z,22.72
2022-08-07T11:58:17.904Z,23.22
2022-08-07T12:00:08.331Z,22.54
2022-08-07T12:00:20.047Z,22.54
2022-08-07T12:01:20.154Z,22.44
2022-08-07T12:02:30.059Z,22.94
2022-08-07T12:03:41.456Z,22.55
2022-08-07T12:04:17.775Z,21.86
2022-08-07T12:05:41.138Z,21.83
2022-08-07T12:06:37.801Z,22.14
2022-08-07T12:07:27.063Z,22.33
2022-08-07T12:08:26.015Z,22.25
2022-08-07T12:09:23.717Z,22.75
2022-08-07T12:10:17.701Z,22.75
2022-08-07T12:11:21.488Z,22.15
2022-08-07T12:12:17.676Z,21.86
2022-08-07T12:13:18.598Z,21.75
2022-08-07T12:14:19.067Z,21.65
2022-08-07T12:15:46.335Z,21.65
2022-08-07T12:16:29.612Z,21.94
2022-08-07T12:17:20.428Z,21.44
2022-08-07T12:18:22.031Z,21.34
2022-08-07T12:19:21.282Z,22.14
2022-08-07T12:20:19.957Z,22.13
2022-08-07T12:21:20.978Z,21.31
2022-08-07T12:22:39.415Z,21.40
2022-08-07T12:23:18.006Z,21.50
2022-08-07T12:24:37.446Z,21.31
2022-08-07T12:26:00.288Z,21.10
2022-08-07T12:26:28.588Z,21.12
2022-08-07T12:27:17.497Z,21.22
2022-08-07T12:28:17.701Z,21.44
2022-08-07T12:29:20.351Z,22.02
2022-08-07T12:30:17.455Z,21.83
2022-08-07T12:31:22.495Z,21.42
2022-08-07T12:32:18.227Z,21.33
2022-08-07T12:33:23.498Z,21.23
2022-08-07T12:34:17.403Z,20.92
2022-08-07T12:35:17.393Z,21.22
2022-08-07T12:36:17.381Z,21.00
2022-08-07T12:37:23.316Z,20.92
2022-08-07T12:38:36.957Z,20.84
2022-08-07T12:39:43.073Z,20.94
2022-08-07T12:40:47.107Z,21.03
2022-08-07T12:41:17.429Z,20.83
2022-08-07T12:42:17.306Z,20.74
2022-08-07T12:44:02.539Z,21.14
2022-08-07T12:44:17.504Z,21.45
2022-08-07T12:45:17.273Z,21.35
2022-08-07T12:46:26.433Z,20.94
2022-08-07T12:47:21.787Z,20.83
2022-08-07T12:48:27.910Z,20.94
2022-08-07T12:49:25.689Z,21.23
2022-08-07T12:50:38.631Z,21.44
2022-08-07T12:51:18.012Z,21.15
2022-08-07T12:52:18.015Z,21.97
2022-08-07T12:53:18.378Z,21.56
2022-08-07T12:54:37.159Z,21.36
2022-08-07T12:55:17.672Z,21.03
2022-08-07T12:56:17.144Z,20.83